Time;durP1;ratioP1;P1;durP2;ratioP2;P2;SDS_P1;SDS_P2;PMS_P1;PMS_P2;Temp;Humidity;BMP_temperature;BMP_pressure;BME280_temperature;BME280_humidity;BME280_pressure;Samples;Min_cycle;Max_cycle;Signal;HPM_P1;HPM_P2
2021/01/30 00:02:00;;;;;;;0.95;0.40;;;6.10;89.70;;;;;;5036314;28;20076;-76
2021/01/30 00:04:26;;;;;;;1.23;0.40;;;6.10;89.40;;;;;;5036528;28;20057;-77
2021/01/30 00:06:53;;;;;;;1.75;0.30;;;6.10;88.80;;;;;;5036434;28;20029;-76
2021/01/30 00:09:20;;;;;;;2.70;0.40;;;6.00;88.40;;;;;;5036565;28;20034;-76
2021/01/30 00:11:50;;;;;;;0.35;0.30;;;6.10;88.10;;;;;;5036504;28;20029;-76
2021/01/30 00:14:27;;;;;;;0.65;0.30;;;6.00;88.40;;;;;;5036428;28;20481;-77
2021/01/30 00:16:53;;;;;;;0.95;0.40;;;6.00;88.40;;;;;;5036251;28;20494;-77
2021/01/30 00:19:19;;;;;;;0.90;0.50;;;5.90;88.60;;;;;;5036149;28;20363;-76
2021/01/30 00:22:19;;;;;;;1.63;0.52;;;5.90;88.60;;;;;;5036240;28;20128;-76
2021/01/30 00:24:47;;;;;;;1.27;0.35;;;5.90;88.50;;;;;;5025413;28;20394;-77
2021/01/30 00:27:15;;;;;;;0.70;0.40;;;5.90;88.40;;;;;;5034961;28;20097;-77
2021/01/30 00:29:42;;;;;;;0.50;0.30;;;6.00;88.10;;;;;;5036144;28;20021;-77
2021/01/30 00:32:08;;;;;;;0.77;0.30;;;6.00;87.40;;;;;;5035989;28;20409;-77
2021/01/30 00:34:35;;;;;;;1.67;0.60;;;6.00;86.80;;;;;;5035931;28;20111;-77
2021/01/30 00:37:17;;;;;;;1.45;0.38;;;5.90;86.40;;;;;;5046690;28;20024;-79
2021/01/30 00:39:43;;;;;;;2.05;0.50;;;5.90;86.10;;;;;;5060582;28;20029;-76
2021/01/30 00:42:10;;;;;;;1.17;0.40;;;5.90;85.40;;;;;;5043736;28;20022;-77
2021/01/30 00:44:36;;;;;;;0.93;0.20;;;5.90;85.30;;;;;;5035926;28;20025;-78
2021/01/30 00:47:02;;;;;;;0.65;0.15;;;5.90;85.30;;;;;;5035655;28;20026;-77
2021/01/30 00:49:28;;;;;;;1.05;0.45;;;6.00;85.10;;;;;;5035900;28;20053;-77
2021/01/30 00:51:53;;;;;;;1.95;0.30;;;5.90;85.10;;;;;;5033996;28;20048;-78
2021/01/30 00:54:20;;;;;;;0.85;0.40;;;5.90;85.90;;;;;;5034649;28;20026;-77
2021/01/30 00:56:53;;;;;;;1.65;0.50;;;6.00;84.70;;;;;;5035570;28;20034;-78
2021/01/30 00:59:19;;;;;;;2.33;0.40;;;6.00;84.70;;;;;;5035489;28;20481;-78
2021/01/30 01:01:45;;;;;;;1.05;0.30;;;6.00;84.40;;;;;;5035437;28;20076;-77
2021/01/30 01:04:11;;;;;;;2.05;0.40;;;6.00;84.40;;;;;;5034113;28;20045;-77
2021/01/30 01:06:36;;;;;;;1.45;0.30;;;6.10;84.40;;;;;;5034928;28;20473;-76
2021/01/30 01:09:06;;;;;;;0.30;0.25;;;6.10;83.80;;;;;;5035388;28;20033;-76
2021/01/30 01:11:32;;;;;;;0.80;0.30;;;6.20;83.30;;;;;;5035287;28;20027;-77
2021/01/30 01:13:58;;;;;;;1.67;0.40;;;6.20;82.10;;;;;;5035198;28;20032;-77
2021/01/30 01:16:23;;;;;;;2.47;0.40;;;6.10;82.10;;;;;;5033642;28;20030;-77
2021/01/30 01:18:49;;;;;;;0.73;0.25;;;6.10;82.20;;;;;;5034809;28;20033;-77
2021/01/30 01:21:14;;;;;;;2.70;0.40;;;6.10;82.10;;;;;;5034996;28;20026;-77
2021/01/30 01:23:44;;;;;;;0.45;0.20;;;6.10;81.80;;;;;;5035053;28;20365;-77
2021/01/30 01:26:16;;;;;;;1.17;0.50;;;6.10;81.20;;;;;;5035004;28;20664;-76
2021/01/30 01:28:43;;;;;;;0.95;0.30;;;6.10;81.70;;;;;;5035048;28;20103;-75
2021/01/30 01:31:10;;;;;;;0.80;0.30;;;6.10;81.60;;;;;;5034844;28;20087;-76
2021/01/30 01:33:36;;;;;;;1.63;0.30;;;6.10;81.20;;;;;;5034812;28;20079;-76
2021/01/30 01:36:02;;;;;;;0.57;0.20;;;6.20;81.10;;;;;;5034893;28;20436;-77
2021/01/30 01:38:28;;;;;;;3.00;0.40;;;6.10;81.20;;;;;;5034970;28;20084;-77
2021/01/30 01:40:53;;;;;;;0.05;0.05;;;6.10;81.30;;;;;;5034770;28;20064;-77
2021/01/30 01:43:25;;;;;;;0.55;0.17;;;6.10;80.90;;;;;;5034808;28;20382;-77
2021/01/30 01:46:14;;;;;;;2.10;0.20;;;6.20;81.30;;;;;;5034904;28;20478;-77
2021/01/30 01:48:53;;;;;;;1.85;0.40;;;6.20;80.70;;;;;;5034902;28;20374;-76
2021/01/30 01:51:27;;;;;;;0.47;0.17;;;6.20;80.40;;;;;;5034613;28;20109;-77
2021/01/30 01:53:55;;;;;;;0.13;0.13;;;6.20;80.80;;;;;;5034592;28;20026;-77
2021/01/30 01:56:25;;;;;;;0.93;0.25;;;6.20;80.60;;;;;;5034386;28;20602;-76
2021/01/30 01:58:56;;;;;;;0.70;0.17;;;6.20;80.50;;;;;;5034282;28;20120;-76
2021/01/30 02:01:22;;;;;;;0.55;0.20;;;6.30;80.40;;;;;;5034352;28;20067;-77
2021/01/30 02:03:53;;;;;;;0.80;0.10;;;6.20;79.70;;;;;;5033823;28;20053;-77
2021/01/30 02:06:19;;;;;;;0.75;0.13;;;6.30;80.00;;;;;;5034319;28;20030;-76
2021/01/30 02:08:46;;;;;;;0.20;0.10;;;6.30;80.00;;;;;;5034340;28;20417;-77
2021/01/30 02:11:12;;;;;;;0.52;0.20;;;6.20;80.10;;;;;;5034152;28;20028;-76
2021/01/30 02:13:49;;;;;;;0.10;0.10;;;6.20;79.90;;;;;;5034193;28;20025;-77
2021/01/30 02:16:36;;;;;;;0.13;0.10;;;6.30;79.30;;;;;;5034021;28;20034;-76
2021/01/30 02:19:08;;;;;;;1.13;0.20;;;6.30;78.60;;;;;;5033913;28;20040;-78
2021/01/30 02:22:05;;;;;;;1.70;0.10;;;6.30;78.70;;;;;;5033892;28;20022;-78
2021/01/30 02:25:16;;;;;;;3.78;0.30;;;6.30;78.30;;;;;;5034010;28;20036;-77
2021/01/30 02:27:57;;;;;;;0.80;0.20;;;6.30;78.80;;;;;;5033941;28;20083;-77
2021/01/30 02:30:43;;;;;;;0.30;0.10;;;6.20;79.20;;;;;;5033899;28;20414;-76
2021/01/30 02:33:44;;;;;;;2.13;0.15;;;6.10;79.50;;;;;;5033764;28;20038;-77
2021/01/30 02:36:40;;;;;;;0.73;0.10;;;6.10;80.20;;;;;;5033789;28;20642;-77
2021/01/30 02:39:06;;;;;;;0.08;0.08;;;6.10;80.10;;;;;;5033447;28;20081;-77
2021/01/30 02:41:35;;;;;;;0.50;0.15;;;6.10;80.10;;;;;;5033614;28;20575;-77
2021/01/30 02:44:04;;;;;;;0.47;0.10;;;6.10;80.90;;;;;;5033519;28;20053;-78
2021/01/30 02:46:37;;;;;;;1.35;0.20;;;6.10;80.00;;;;;;5033568;28;20017;-78
2021/01/30 02:49:10;;;;;;;1.42;0.63;;;6.10;80.40;;;;;;5033397;28;20033;-77
2021/01/30 02:51:42;;;;;;;0.68;0.28;;;6.10;80.20;;;;;;5033338;28;20105;-77
2021/01/30 02:54:09;;;;;;;2.42;0.50;;;6.10;79.70;;;;;;5033339;28;20033;-77
2021/01/30 02:56:35;;;;;;;0.65;0.10;;;6.00;79.10;;;;;;5033408;28;20041;-77
2021/01/30 02:59:30;;;;;;;1.88;0.30;;;6.10;79.20;;;;;;5033234;28;20067;-77
2021/01/30 03:01:57;;;;;;;3.60;0.50;;;6.10;79.30;;;;;;5019619;28;20056;-77
2021/01/30 03:04:26;;;;;;;1.85;0.40;;;6.10;78.30;;;;;;5033161;28;20045;-77
2021/01/30 03:07:00;;;;;;;2.42;0.47;;;6.10;78.80;;;;;;5033240;28;20440;-77
2021/01/30 03:09:32;;;;;;;2.80;0.75;;;6.10;79.40;;;;;;5033223;28;20029;-77
2021/01/30 03:12:17;;;;;;;1.45;0.40;;;6.00;79.40;;;;;;5033201;28;20223;-77
2021/01/30 03:14:56;;;;;;;3.58;0.52;;;6.00;79.20;;;;;;5033233;28;20109;-77
2021/01/30 03:17:24;;;;;;;4.57;0.70;;;6.10;79.10;;;;;;5032471;28;20041;-76
2021/01/30 03:19:54;;;;;;;7.57;1.00;;;6.10;78.80;;;;;;5032980;28;20057;-77
2021/01/30 03:22:22;;;;;;;6.13;0.88;;;6.10;78.50;;;;;;5032909;28;20018;-77
2021/01/30 03:24:48;;;;;;;5.63;0.40;;;6.10;78.10;;;;;;5032871;28;20033;-77
2021/01/30 03:27:25;;;;;;;4.50;0.68;;;6.10;77.60;;;;;;5032938;28;20089;-77
2021/01/30 03:29:51;;;;;;;5.03;0.70;;;6.00;77.10;;;;;;5033002;28;20017;-76
2021/01/30 03:32:21;;;;;;;6.05;1.15;;;6.10;76.80;;;;;;5032912;28;20072;-77
2021/01/30 03:34:49;;;;;;;6.05;0.80;;;6.10;76.80;;;;;;5032924;28;20132;-77
2021/01/30 03:37:15;;;;;;;2.03;0.63;;;6.10;76.60;;;;;;5032920;28;20091;-77
2021/01/30 03:39:41;;;;;;;6.38;0.90;;;6.10;76.10;;;;;;5032745;28;20113;-77
2021/01/30 03:42:06;;;;;;;4.53;1.02;;;6.00;76.30;;;;;;5032856;28;20470;-78
2021/01/30 03:44:32;;;;;;;5.05;0.70;;;6.10;76.40;;;;;;5032356;28;20029;-77
2021/01/30 03:46:58;;;;;;;3.88;0.93;;;6.00;75.90;;;;;;5032675;28;20098;-77
2021/01/30 03:49:24;;;;;;;5.72;0.88;;;6.00;76.30;;;;;;5044188;28;20041;-76
2021/01/30 03:51:49;;;;;;;3.45;0.60;;;6.00;76.40;;;;;;5051522;28;20081;-77
2021/01/30 03:54:15;;;;;;;7.07;1.00;;;6.10;76.60;;;;;;5035747;28;20021;-77
2021/01/30 03:56:43;;;;;;;7.60;0.98;;;6.00;76.50;;;;;;5032758;28;20033;-77
2021/01/30 03:59:08;;;;;;;7.78;1.27;;;6.00;76.80;;;;;;5032463;28;20462;-77
2021/01/30 04:01:34;;;;;;;3.63;1.00;;;6.00;76.80;;;;;;5032750;28;20029;-78
2021/01/30 04:04:00;;;;;;;5.70;1.08;;;6.10;76.70;;;;;;5032500;28;20525;-78
2021/01/30 04:06:26;;;;;;;4.95;1.20;;;6.10;76.80;;;;;;5032587;28;20474;-77
2021/01/30 04:08:51;;;;;;;7.90;1.20;;;6.00;76.90;;;;;;5032640;28;20022;-76
2021/01/30 04:11:26;;;;;;;7.55;1.45;;;6.10;76.80;;;;;;5032562;28;20024;-76
2021/01/30 04:13:52;;;;;;;9.43;1.20;;;6.00;76.60;;;;;;5032638;28;20034;-77
2021/01/30 04:16:18;;;;;;;10.38;2.08;;;6.10;76.80;;;;;;5032469;28;20462;-76
2021/01/30 04:18:43;;;;;;;9.50;1.75;;;6.10;76.90;;;;;;5032489;28;20064;-77
2021/01/30 04:21:09;;;;;;;8.73;1.63;;;6.10;76.80;;;;;;5032614;28;20021;-78
2021/01/30 04:23:35;;;;;;;6.55;1.00;;;6.00;76.50;;;;;;5032338;28;20109;-76
2021/01/30 04:26:00;;;;;;;8.40;1.42;;;6.10;76.40;;;;;;5032377;28;20067;-77
2021/01/30 04:28:26;;;;;;;6.82;1.15;;;6.00;76.50;;;;;;5035331;28;20425;-76
2021/01/30 04:30:51;;;;;;;3.80;1.13;;;6.00;76.30;;;;;;5035993;28;20025;-76
2021/01/30 04:33:17;;;;;;;13.52;1.83;;;6.00;76.50;;;;;;5035972;28;20528;-74
2021/01/30 04:35:43;;;;;;;4.72;1.60;;;6.00;76.20;;;;;;5036196;28;20052;-75
2021/01/30 04:38:08;;;;;;;2.92;0.80;;;6.00;76.10;;;;;;5035782;28;20075;-76
2021/01/30 04:40:40;;;;;;;7.40;1.63;;;6.00;76.00;;;;;;5035894;28;20037;-76
2021/01/30 04:43:17;;;;;;;13.10;1.95;;;6.00;75.80;;;;;;5035664;28;20030;-76
2021/01/30 04:45:51;;;;;;;9.10;1.70;;;6.00;75.60;;;;;;5035794;28;20108;-76
2021/01/30 04:48:34;;;;;;;6.60;1.65;;;6.00;76.10;;;;;;5035932;28;20022;-78
2021/01/30 04:51:07;;;;;;;9.98;1.23;;;6.00;75.80;;;;;;5034454;28;20030;-76
2021/01/30 04:53:55;;;;;;;8.10;1.55;;;6.00;75.70;;;;;;5035731;28;20021;-75
2021/01/30 04:56:36;;;;;;;9.85;1.73;;;6.00;75.90;;;;;;5034165;28;20446;-76
2021/01/30 04:59:15;;;;;;;11.68;2.30;;;6.00;75.90;;;;;;5035513;28;20030;-76
2021/01/30 05:01:49;;;;;;;12.43;2.08;;;6.00;76.30;;;;;;5035701;28;20048;-76
2021/01/30 05:04:32;;;;;;;10.30;1.88;;;6.10;76.10;;;;;;5035371;28;20399;-76
2021/01/30 05:07:25;;;;;;;11.85;2.70;;;6.00;76.30;;;;;;5035584;28;20092;-76
2021/01/30 05:10:25;;;;;;;14.93;2.05;;;6.10;76.50;;;;;;5035746;28;20073;-76
2021/01/30 05:13:00;;;;;;;15.50;2.03;;;6.10;76.60;;;;;;5035031;28;20061;-76
2021/01/30 05:15:51;;;;;;;12.25;2.08;;;6.10;76.70;;;;;;5035393;28;20025;-76
2021/01/30 05:18:27;;;;;;;11.50;1.98;;;6.10;76.90;;;;;;5035014;28;20029;-76
2021/01/30 05:21:11;;;;;;;12.30;2.72;;;6.10;77.00;;;;;;5035089;28;20520;-77
2021/01/30 05:23:39;;;;;;;11.98;2.85;;;6.00;77.40;;;;;;5035052;28;20026;-76
2021/01/30 05:26:17;;;;;;;15.30;1.80;;;6.10;77.20;;;;;;5035359;28;20037;-76
2021/01/30 05:29:05;;;;;;;10.77;2.53;;;6.10;77.00;;;;;;5034879;28;20368;-76
2021/01/30 05:31:57;;;;;;;12.70;1.80;;;6.10;77.10;;;;;;5035290;28;20367;-76
2021/01/30 05:34:30;;;;;;;11.75;2.38;;;6.10;77.10;;;;;;5033699;28;20025;-76
2021/01/30 05:37:05;;;;;;;9.90;2.20;;;6.10;77.10;;;;;;5034806;28;20428;-76
2021/01/30 05:39:47;;;;;;;12.00;1.83;;;6.10;76.80;;;;;;5033990;28;20505;-75
2021/01/30 05:42:49;;;;;;;15.02;2.30;;;6.10;76.50;;;;;;5034791;28;20279;-75
2021/01/30 05:45:33;;;;;;;13.60;2.00;;;6.20;76.20;;;;;;5034807;28;20033;-77
2021/01/30 05:48:00;;;;;;;13.40;1.80;;;6.20;76.10;;;;;;5034695;28;20053;-77
2021/01/30 05:50:36;;;;;;;8.27;1.98;;;6.20;75.50;;;;;;5033286;28;20366;-77
2021/01/30 05:53:02;;;;;;;13.32;1.77;;;6.20;75.70;;;;;;5034534;28;20017;-76
2021/01/30 05:55:33;;;;;;;11.20;1.92;;;6.20;75.40;;;;;;5034583;28;20026;-75
2021/01/30 05:58:08;;;;;;;12.57;2.40;;;6.20;75.00;;;;;;5034493;28;20101;-76
2021/01/30 06:00:35;;;;;;;16.67;2.55;;;6.20;74.60;;;;;;5034661;28;20029;-77
2021/01/30 06:03:05;;;;;;;19.02;2.22;;;6.20;74.10;;;;;;5034203;28;20042;-76
2021/01/30 06:05:34;;;;;;;9.63;2.10;;;6.20;74.20;;;;;;5034320;28;20542;-76
2021/01/30 06:08:30;;;;;;;18.92;2.83;;;6.20;73.90;;;;;;5034312;28;20025;-77
2021/01/30 06:11:08;;;;;;;11.30;2.08;;;6.20;73.90;;;;;;5034349;28;20030;-77
2021/01/30 06:13:49;;;;;;;17.25;2.58;;;6.20;74.00;;;;;;5034192;28;20029;-77
2021/01/30 06:16:45;;;;;;;14.10;3.30;;;6.20;74.10;;;;;;5034160;28;20025;-77
2021/01/30 06:19:12;;;;;;;13.15;1.95;;;6.30;73.90;;;;;;5034093;28;20044;-76
2021/01/30 06:21:37;;;;;;;13.27;2.72;;;6.20;73.60;;;;;;5034062;28;20021;-76
2021/01/30 06:24:23;;;;;;;13.18;2.35;;;6.20;73.80;;;;;;5033889;28;20079;-76
2021/01/30 06:26:50;;;;;;;15.05;2.55;;;6.20;73.70;;;;;;5033947;28;20088;-77
2021/01/30 06:29:35;;;;;;;12.32;2.15;;;6.30;73.30;;;;;;5033778;28;20028;-75
2021/01/30 06:32:38;;;;;;;16.08;1.80;;;6.30;73.30;;;;;;5033740;28;20072;-77
2021/01/30 06:35:24;;;;;;;9.10;1.40;;;6.30;72.90;;;;;;5030431;28;20087;-76
2021/01/30 06:38:17;;;;;;;9.95;2.00;;;6.20;72.90;;;;;;5033679;28;20100;-77
2021/01/30 06:40:51;;;;;;;10.55;2.03;;;6.20;73.90;;;;;;5033838;28;20026;-76
2021/01/30 06:43:34;;;;;;;6.35;1.50;;;6.20;73.50;;;;;;5032348;28;20036;-76
2021/01/30 06:46:15;;;;;;;6.25;1.25;;;6.30;73.10;;;;;;5033523;28;20052;-76
2021/01/30 06:48:45;;;;;;;14.00;2.10;;;6.20;72.60;;;;;;5033466;28;20026;-76
2021/01/30 06:51:40;;;;;;;14.65;1.80;;;6.20;72.70;;;;;;5033244;28;20028;-76
2021/01/30 06:54:21;;;;;;;16.27;2.17;;;6.30;72.40;;;;;;5020591;28;20120;-76
2021/01/30 06:56:58;;;;;;;7.90;1.50;;;6.30;72.20;;;;;;5033094;28;20024;-76
2021/01/30 06:59:28;;;;;;;10.82;2.28;;;6.20;72.30;;;;;;5033250;28;20037;-76
2021/01/30 07:01:54;;;;;;;12.80;1.88;;;6.20;72.20;;;;;;5033085;28;20437;-75
2021/01/30 07:04:25;;;;;;;13.57;1.90;;;6.20;72.30;;;;;;5033086;28;20041;-76
2021/01/30 07:07:19;;;;;;;11.13;1.73;;;6.20;72.40;;;;;;5033287;28;20516;-75
2021/01/30 07:09:56;;;;;;;12.68;2.08;;;6.20;72.30;;;;;;5033053;28;20028;-76
2021/01/30 07:12:32;;;;;;;15.57;2.40;;;6.20;72.00;;;;;;5032837;28;20096;-76
2021/01/30 07:15:18;;;;;;;12.63;2.17;;;6.20;72.20;;;;;;5032810;28;20109;-76
2021/01/30 07:18:16;;;;;;;11.55;1.85;;;6.20;72.10;;;;;;5032708;28;20033;-77
2021/01/30 07:20:56;;;;;;;12.15;1.75;;;6.20;72.10;;;;;;4999771;28;20387;-78
2021/01/30 07:23:26;;;;;;;11.90;2.00;;;6.20;72.20;;;;;;5032788;28;20591;-76
2021/01/30 07:25:57;;;;;;;14.77;3.05;;;6.20;72.10;;;;;;5032845;28;20479;-77
2021/01/30 07:28:37;;;;;;;12.80;2.30;;;6.30;72.00;;;;;;5032672;28;20397;-77
2021/01/30 07:31:23;;;;;;;13.23;1.77;;;6.30;72.10;;;;;;5032746;28;20029;-78
2021/01/30 07:33:54;;;;;;;14.30;1.92;;;6.40;71.80;;;;;;5032677;28;20092;-76
2021/01/30 07:36:31;;;;;;;15.30;2.13;;;6.30;71.80;;;;;;5032685;28;20382;-76
2021/01/30 07:39:04;;;;;;;12.85;2.22;;;6.30;71.80;;;;;;5032706;28;20440;-77
2021/01/30 07:41:49;;;;;;;13.82;2.10;;;6.40;71.90;;;;;;5031478;28;20025;-75
2021/01/30 07:44:40;;;;;;;13.45;2.10;;;6.40;71.40;;;;;;5032706;28;20075;-77
2021/01/30 07:47:15;;;;;;;10.00;1.73;;;6.50;70.90;;;;;;5032779;28;20100;-76
2021/01/30 07:49:48;;;;;;;13.70;2.13;;;6.50;70.70;;;;;;5032832;28;20053;-75
2021/01/30 07:52:20;;;;;;;13.77;2.28;;;6.40;71.20;;;;;;5032737;28;20041;-75
2021/01/30 07:54:50;;;;;;;11.85;2.47;;;6.40;71.10;;;;;;5032661;28;20017;-77
2021/01/30 07:57:29;;;;;;;12.60;2.17;;;6.50;70.80;;;;;;5032458;28;20025;-75
2021/01/30 08:00:09;;;;;;;15.93;2.30;;;6.50;70.80;;;;;;5031283;28;20047;-75
2021/01/30 08:03:01;;;;;;;14.90;2.55;;;6.40;70.70;;;;;;5034092;28;20029;-74
2021/01/30 08:05:37;;;;;;;17.27;2.78;;;6.50;70.90;;;;;;5036431;28;20382;-76
2021/01/30 08:08:14;;;;;;;15.50;2.53;;;6.60;70.90;;;;;;5036447;28;20377;-76
2021/01/30 08:11:15;;;;;;;18.73;2.60;;;6.60;71.00;;;;;;5035286;28;20112;-76
2021/01/30 08:14:08;;;;;;;15.73;2.25;;;6.50;71.20;;;;;;5036544;28;20397;-77
2021/01/30 08:16:57;;;;;;;11.73;2.80;;;6.60;71.20;;;;;;5036595;28;20125;-77
2021/01/30 08:19:51;;;;;;;12.63;1.80;;;6.60;71.20;;;;;;5036213;28;20037;-77
2021/01/30 08:22:24;;;;;;;14.82;2.35;;;6.60;71.20;;;;;;5036199;28;20101;-77
2021/01/30 08:25:03;;;;;;;12.77;2.47;;;6.60;71.30;;;;;;5036166;28;20040;-75
2021/01/30 08:27:36;;;;;;;17.73;2.60;;;6.60;71.50;;;;;;5036183;28;20393;-76
2021/01/30 08:30:16;;;;;;;22.40;2.72;;;6.70;71.20;;;;;;5036136;28;20033;-74
2021/01/30 08:33:02;;;;;;;17.52;2.30;;;7.00;76.40;;;;;;5035789;28;20033;-76
2021/01/30 08:35:28;;;;;;;16.23;2.45;;;7.20;72.50;;;;;;5035569;28;20053;-75
2021/01/30 08:38:05;;;;;;;15.73;2.20;;;7.20;70.50;;;;;;5035753;28;20062;-75
2021/01/30 08:40:51;;;;;;;9.60;2.15;;;7.30;69.90;;;;;;5035938;28;20116;-75
2021/01/30 08:43:20;;;;;;;11.98;2.22;;;7.50;70.10;;;;;;5035750;28;20028;-75
2021/01/30 08:45:45;;;;;;;13.18;2.67;;;7.50;68.70;;;;;;5035626;28;20414;-74
2021/01/30 08:48:27;;;;;;;13.57;2.45;;;7.50;68.00;;;;;;5035649;28;20061;-75
2021/01/30 08:50:55;;;;;;;13.70;2.47;;;7.50;68.20;;;;;;5035602;28;20026;-76
2021/01/30 08:53:23;;;;;;;18.50;3.15;;;7.50;68.10;;;;;;5036388;28;20099;-76
2021/01/30 08:55:55;;;;;;;10.02;2.70;;;7.50;68.20;;;;;;5036209;28;20041;-75
2021/01/30 08:58:36;;;;;;;17.98;3.17;;;7.40;68.50;;;;;;5036502;28;20039;-75
2021/01/30 09:01:09;;;;;;;13.88;2.28;;;7.30;69.00;;;;;;5035368;28;20112;-74
2021/01/30 09:03:54;;;;;;;10.30;1.80;;;7.30;69.60;;;;;;5035277;28;20063;-75
2021/01/30 09:06:38;;;;;;;18.75;2.72;;;7.20;69.10;;;;;;5035209;28;20091;-74
2021/01/30 09:09:15;;;;;;;12.00;2.55;;;7.20;68.80;;;;;;5035131;28;20030;-74
2021/01/30 09:11:51;;;;;;;8.38;1.70;;;7.20;68.40;;;;;;5033884;28;20111;-74
2021/01/30 09:14:16;;;;;;;12.88;1.95;;;7.10;68.10;;;;;;5032426;28;20026;-73
2021/01/30 09:16:57;;;;;;;11.88;2.10;;;7.10;68.60;;;;;;5034791;28;20025;-76
2021/01/30 09:19:41;;;;;;;11.43;1.80;;;7.10;69.10;;;;;;5035122;28;20049;-74
2021/01/30 09:22:09;;;;;;;10.00;2.50;;;7.10;69.90;;;;;;5033908;28;20424;-73
2021/01/30 09:25:19;;;;;;;10.82;2.30;;;7.10;70.20;;;;;;5034800;28;20501;-73
2021/01/30 09:28:06;;;;;;;12.80;1.77;;;7.10;70.30;;;;;;5034560;28;20025;-73
2021/01/30 09:30:39;;;;;;;16.10;2.45;;;7.20;70.30;;;;;;5032854;28;20026;-73
2021/01/30 09:33:29;;;;;;;9.48;2.17;;;7.10;69.10;;;;;;5033092;28;20036;-73
2021/01/30 09:36:13;;;;;;;11.15;1.75;;;7.10;68.30;;;;;;5033377;28;20025;-73
2021/01/30 09:38:45;;;;;;;15.45;2.30;;;7.20;68.20;;;;;;5033431;28;20041;-73
2021/01/30 09:41:24;;;;;;;9.73;1.58;;;7.10;68.30;;;;;;5033318;28;20144;-73
2021/01/30 09:44:22;;;;;;;6.97;1.20;;;7.10;67.30;;;;;;5033334;28;20316;-73
2021/01/30 09:46:53;;;;;;;6.50;1.00;;;7.00;66.90;;;;;;5032401;28;20037;-73
2021/01/30 09:49:26;;;;;;;9.43;1.55;;;7.00;67.60;;;;;;5033180;28;20075;-74
2021/01/30 09:51:53;;;;;;;14.63;1.83;;;7.00;67.30;;;;;;5033095;28;20030;-73
2021/01/30 09:54:21;;;;;;;6.22;1.10;;;6.90;67.60;;;;;;5032965;28;20029;-75
2021/01/30 09:56:47;;;;;;;4.45;0.98;;;6.90;67.70;;;;;;5032638;28;20144;-75
2021/01/30 09:59:15;;;;;;;11.63;4.60;;;7.00;67.30;;;;;;5032834;28;20065;-74
2021/01/30 10:01:46;;;;;;;9.68;2.10;;;7.00;67.10;;;;;;5030629;28;20040;-73
2021/01/30 10:04:16;;;;;;;5.57;1.27;;;7.10;66.30;;;;;;5020346;28;20046;-75
2021/01/30 10:06:46;;;;;;;10.02;1.23;;;7.20;66.20;;;;;;5014315;28;20101;-73
2021/01/30 10:09:19;;;;;;;8.48;1.80;;;7.30;66.70;;;;;;5012772;28;20032;-76
2021/01/30 10:11:59;;;;;;;6.55;1.25;;;7.20;65.70;;;;;;5014059;28;20018;-74
2021/01/30 10:14:35;;;;;;;9.10;1.60;;;7.30;65.80;;;;;;5012738;28;20498;-74
2021/01/30 10:17:11;;;;;;;4.57;1.50;;;7.40;65.40;;;;;;5012544;28;20026;-73
2021/01/30 10:19:38;;;;;;;10.35;1.70;;;7.40;65.40;;;;;;5014000;28;20032;-74
2021/01/30 10:22:15;;;;;;;7.43;1.95;;;7.50;65.70;;;;;;5012615;28;20096;-74
2021/01/30 10:24:43;;;;;;;3.97;1.33;;;7.60;65.60;;;;;;5013645;28;20022;-73
2021/01/30 10:27:14;;;;;;;4.50;1.38;;;7.70;66.10;;;;;;5013892;28;20375;-74
2021/01/30 10:29:40;;;;;;;9.55;1.30;;;7.80;65.70;;;;;;5013808;28;20040;-75
2021/01/30 10:32:14;;;;;;;4.03;1.40;;;7.70;65.50;;;;;;5013766;28;20053;-75
2021/01/30 10:34:45;;;;;;;6.50;1.63;;;7.60;65.80;;;;;;5013704;28;20030;-74
2021/01/30 10:37:18;;;;;;;6.90;1.48;;;7.80;65.80;;;;;;5013610;28;20423;-75
2021/01/30 10:39:50;;;;;;;11.57;2.58;;;7.90;65.90;;;;;;5012348;28;20037;-74
2021/01/30 10:42:29;;;;;;;7.55;2.15;;;7.90;65.70;;;;;;5013481;28;20022;-74
2021/01/30 10:45:04;;;;;;;11.40;4.05;;;7.90;65.50;;;;;;5013485;28;20425;-76
2021/01/30 10:47:30;;;;;;;11.90;3.80;;;7.90;65.90;;;;;;5013455;28;20061;-74
2021/01/30 10:50:19;;;;;;;5.22;1.60;;;7.90;66.20;;;;;;5019667;28;20029;-74
2021/01/30 10:52:46;;;;;;;4.97;1.55;;;8.00;65.70;;;;;;5012138;28;20574;-74
2021/01/30 10:55:41;;;;;;;5.30;1.08;;;8.00;65.50;;;;;;5012189;28;20391;-74
2021/01/30 10:58:12;;;;;;;6.18;1.60;;;8.00;65.60;;;;;;4982246;28;20034;-74
2021/01/30 11:00:39;;;;;;;7.00;1.85;;;8.00;65.50;;;;;;5013272;28;20084;-73
2021/01/30 11:03:24;;;;;;;9.05;1.83;;;7.90;65.40;;;;;;5011306;28;20510;-72
2021/01/30 11:05:50;;;;;;;8.02;1.67;;;7.90;65.80;;;;;;5013258;28;20025;-77
2021/01/30 11:08:30;;;;;;;8.05;2.30;;;7.90;66.20;;;;;;5011674;28;20029;-76
2021/01/30 11:11:08;;;;;;;5.00;1.92;;;8.10;67.20;;;;;;5015614;28;20113;-76
2021/01/30 11:13:54;;;;;;;6.63;2.05;;;8.30;68.10;;;;;;5025589;28;20064;-76
2021/01/30 11:16:26;;;;;;;;;;;8.50;66.60;;;;;;5027662;28;20060;-76
2021/01/30 11:18:52;;;;;;;6.15;1.50;;;8.50;66.20;;;;;;5011810;28;19920;-75
2021/01/30 11:21:37;;;;;;;7.00;1.85;;;8.60;65.60;;;;;;5011694;28;20022;-74
2021/01/30 11:24:22;;;;;;;7.97;1.52;;;8.50;65.40;;;;;;5012869;28;20363;-73
2021/01/30 11:26:48;;;;;;;3.80;1.40;;;8.40;65.80;;;;;;5010607;28;20056;-74
2021/01/30 11:29:32;;;;;;;7.82;1.63;;;8.40;65.40;;;;;;5020857;28;20065;-75
2021/01/30 11:31:59;;;;;;;8.07;1.70;;;8.40;65.50;;;;;;5031056;28;20021;-75
2021/01/30 11:34:25;;;;;;;4.15;1.23;;;8.30;65.80;;;;;;5031823;28;20022;-76
2021/01/30 11:36:51;;;;;;;3.83;1.05;;;8.20;66.00;;;;;;5030698;28;20029;-76
2021/01/30 11:39:25;;;;;;;5.35;1.30;;;8.10;66.40;;;;;;5032364;28;20041;-76
2021/01/30 11:41:51;;;;;;;4.82;1.00;;;7.70;67.40;;;;;;5030845;28;20025;-75
2021/01/30 11:44:16;;;;;;;7.20;0.90;;;7.40;68.50;;;;;;5030875;28;20473;-74
2021/01/30 11:46:42;;;;;;;6.75;1.10;;;7.40;68.80;;;;;;5027958;28;20498;-74
2021/01/30 11:49:08;;;;;;;3.75;0.93;;;7.30;69.40;;;;;;5009506;28;20026;-75
2021/01/30 11:51:33;;;;;;;5.28;0.90;;;7.30;69.80;;;;;;5011771;28;20384;-75
2021/01/30 11:53:59;;;;;;;6.55;1.02;;;7.20;70.90;;;;;;5014218;28;20025;-75
2021/01/30 11:56:25;;;;;;;8.02;0.88;;;7.10;71.30;;;;;;5019034;28;20038;-75
2021/01/30 11:58:50;;;;;;;4.95;1.52;;;7.00;71.90;;;;;;5015642;28;20475;-75
2021/01/30 12:01:18;;;;;;;5.35;1.30;;;7.00;73.60;;;;;;5012277;28;20037;-76
2021/01/30 12:03:43;;;;;;;8.85;1.50;;;7.10;73.70;;;;;;5011145;28;20050;-76
2021/01/30 12:06:10;;;;;;;7.00;1.20;;;7.00;74.30;;;;;;5011222;28;20037;-75
2021/01/30 12:08:35;;;;;;;5.90;1.05;;;7.00;74.50;;;;;;5011605;28;20026;-75
2021/01/30 12:11:02;;;;;;;5.40;1.27;;;7.00;74.40;;;;;;5011509;28;20355;-77
2021/01/30 12:13:28;;;;;;;5.72;1.25;;;7.00;74.00;;;;;;5012324;28;20022;-75
2021/01/30 12:15:53;;;;;;;5.15;1.42;;;7.00;73.90;;;;;;5012074;28;20109;-76
2021/01/30 12:18:20;;;;;;;7.95;1.70;;;7.00;74.30;;;;;;5012009;28;20482;-76
2021/01/30 12:20:49;;;;;;;6.13;1.75;;;7.00;75.50;;;;;;5011604;28;20030;-76
2021/01/30 12:23:15;;;;;;;8.00;1.80;;;6.90;75.40;;;;;;5012294;28;20038;-75
2021/01/30 12:25:41;;;;;;;7.57;1.63;;;6.80;75.70;;;;;;5012030;28;20105;-74
2021/01/30 12:28:08;;;;;;;10.32;1.80;;;6.80;77.00;;;;;;5012449;28;20401;-75
2021/01/30 12:30:37;;;;;;;7.95;2.05;;;6.80;77.50;;;;;;5012566;28;20553;-76
2021/01/30 12:33:04;;;;;;;6.93;2.13;;;6.80;77.50;;;;;;5008853;28;20034;-77
2021/01/30 12:35:31;;;;;;;10.27;1.83;;;6.80;77.10;;;;;;5012313;28;20080;-76
2021/01/30 12:37:57;;;;;;;10.18;2.30;;;6.80;77.70;;;;;;5012605;28;20030;-77
2021/01/30 12:40:31;;;;;;;7.30;2.00;;;6.80;78.20;;;;;;5012165;28;20375;-75
2021/01/30 12:42:58;;;;;;;5.78;1.52;;;6.80;78.90;;;;;;5012258;28;20093;-76
2021/01/30 12:45:24;;;;;;;7.80;2.10;;;6.90;78.90;;;;;;5012394;28;20040;-74
2021/01/30 12:47:49;;;;;;;6.40;1.50;;;6.80;78.80;;;;;;5012323;28;20018;-75
2021/01/30 12:50:20;;;;;;;7.20;1.77;;;6.70;78.70;;;;;;5032616;28;20029;-73
2021/01/30 12:52:46;;;;;;;8.27;1.88;;;6.70;79.10;;;;;;5035439;28;20025;-74
2021/01/30 12:55:12;;;;;;;8.25;2.20;;;6.70;79.10;;;;;;5034221;28;20471;-73
2021/01/30 12:57:38;;;;;;;5.30;1.40;;;6.60;79.00;;;;;;5035528;28;20040;-73
2021/01/30 13:00:16;;;;;;;7.30;1.85;;;6.70;79.20;;;;;;5035271;28;20029;-74
2021/01/30 13:02:42;;;;;;;6.43;1.75;;;6.60;79.40;;;;;;5035329;28;20041;-73
2021/01/30 13:05:10;;;;;;;6.72;1.58;;;6.60;79.50;;;;;;5030959;28;20056;-73
2021/01/30 13:07:36;;;;;;;5.88;1.50;;;6.60;79.50;;;;;;5013747;28;20033;-73
2021/01/30 13:10:05;;;;;;;7.50;1.58;;;6.60;79.70;;;;;;5015389;28;20394;-73
2021/01/30 13:12:30;;;;;;;5.13;1.75;;;6.60;79.50;;;;;;5015093;28;20444;-73
2021/01/30 13:14:57;;;;;;;8.00;1.98;;;6.60;79.90;;;;;;5016076;28;20034;-72
2021/01/30 13:17:22;;;;;;;13.00;3.28;;;6.60;80.20;;;;;;5025115;28;20025;-73
2021/01/30 13:19:48;;;;;;;7.95;2.60;;;6.60;80.70;;;;;;5023493;28;20116;-73
2021/01/30 13:22:13;;;;;;;7.85;2.42;;;6.50;80.60;;;;;;5025285;28;20105;-73
2021/01/30 13:24:42;;;;;;;9.57;2.60;;;6.50;80.60;;;;;;5021779;28;20034;-72
2021/01/30 13:27:09;;;;;;;8.98;2.78;;;6.50;80.90;;;;;;5018774;28;20061;-74